Overview Statistics Trail Chart Weather Telemetry Raw packets
 

This is the latest recevied weather packets stored in our database for station/object KC5TIL. If no packets are shown the sender has not sent any weather packets the latest 10 day(s).

<< 91 92 93 94 95 96 97 >>
Time Temp. Humidity Pressure Rain* Wind** Luminosity Snow
1787930556 33.33° C 57% 1018.9 hPa 0 mm - 567 W/m² -
1787930251 33.33° C 57% 1018.9 hPa 0 mm - 541 W/m² -
1787929950 33.33° C 59% 1018.9 hPa 0 mm - 527 W/m² -
1787929650 33.33° C 59% 1018.9 hPa 0 mm - 468 W/m² -
1787929344 32.78° C 60% 1018.9 hPa 0 mm - 456 W/m² -
1787929042 33.33° C 59% 1018.8 hPa 0 mm - 420 W/m² -
1787928738 32.78° C 60% 1018.8 hPa 0 mm - 371 W/m² -
1787928436 32.22° C 61% 1018.9 hPa 0 mm - 350 W/m² -
1787928135 31.67° C 63% 1018.8 hPa 0 mm - 337 W/m² -
1787927829 31.67° C 64% 1018.9 hPa 0 mm - 320 W/m² -
1787927524 32.22° C 61% 1018.9 hPa 0 mm - 307 W/m² -
1787927219 31.11° C 64% 1019 hPa 0 mm - 267 W/m² -
1787926914 31.11° C 63% 1018.9 hPa 0 mm - 269 W/m² -
1787926608 30.56° C 65% 1019 hPa 0 mm - 249 W/m² -
1787926307 30.56° C 65% 1019.1 hPa 0 mm - 221 W/m² -
1787926002 30.56° C 64% 1018.9 hPa 0 mm - 209 W/m² -
1787925696 31.11° C 64% 1019.1 hPa 0 mm - 198 W/m² -
1787925391 30.56° C 65% 1019.1 hPa 0 mm - 190 W/m² -
1787925090 30.56° C 66% 1019 hPa 0 mm - 172 W/m² -
1787924789 30° C 68% 1018.9 hPa 0 mm - 150 W/m² -
1787924484 30° C 68% 1019.1 hPa 0 mm - 147 W/m² -
1787924179 30° C 67% 1019.1 hPa 0 mm - 141 W/m² -
1787923874 30.56° C 67% 1019 hPa 0 mm - 124 W/m² -
1787923574 30° C 67% 1018.9 hPa 0 mm - 102 W/m² -
1787923270 30° C 67% 1019 hPa 0 mm - 78 W/m² -

* Rain latest hour (hover to see other rain measurements)
** Current wind speed in m/s (hover to see current wind gust speed)